createdAt,value
2019-05-28T00:00:02.798Z,68.65
2019-05-28T00:02:32.043Z,68.47
2019-05-28T00:05:01.264Z,68.89
2019-05-28T00:07:30.732Z,69.51
2019-05-28T00:09:59.949Z,69.95
2019-05-28T00:12:30.988Z,69.64
2019-05-28T00:15:00.736Z,69.71
2019-05-28T00:17:31.276Z,70.13
2019-05-28T00:20:00.509Z,70.16
2019-05-28T00:22:29.916Z,69.84
2019-05-28T00:24:59.439Z,69.38
2019-05-28T00:27:29.385Z,69.06
2019-05-28T00:29:58.916Z,68.89
2019-05-28T00:32:28.141Z,68.72
2019-05-28T00:34:57.347Z,69.51
2019-05-28T00:37:26.595Z,69.22
2019-05-28T00:39:56.070Z,68.35
2019-05-28T00:42:25.261Z,68.16
2019-05-28T00:44:54.470Z,68.01
2019-05-28T00:47:23.732Z,67.46
2019-05-28T00:49:53.004Z,67.59
2019-05-28T00:52:22.212Z,67.30
2019-05-28T00:54:51.425Z,67.51
2019-05-28T00:57:21.084Z,67.53
2019-05-28T00:59:50.991Z,67.50
2019-05-28T01:02:20.235Z,67.30
2019-05-28T01:04:49.483Z,67.26
2019-05-28T01:07:19.291Z,67.44
2019-05-28T01:09:48.503Z,67.54
2019-05-28T01:12:18.018Z,67.43
2019-05-28T01:14:47.676Z,67.65
2019-05-28T01:17:17.015Z,68.91
2019-05-28T01:19:46.581Z,69.35
2019-05-28T01:22:15.946Z,69.93
2019-05-28T01:24:45.233Z,70.06
2019-05-28T01:27:14.750Z,69.65
2019-05-28T01:29:45.527Z,68.84
2019-05-28T01:32:14.872Z,68.47
2019-05-28T01:34:44.697Z,68.35
2019-05-28T01:37:14.414Z,68.22
2019-05-28T01:39:43.958Z,67.90
2019-05-28T01:42:13.162Z,67.71
2019-05-28T01:44:42.421Z,67.88
2019-05-28T01:47:11.641Z,68.48
2019-05-28T01:49:40.863Z,68.46
2019-05-28T01:52:10.444Z,68.35
2019-05-28T01:54:40.069Z,68.39
2019-05-28T01:57:09.535Z,68.52
2019-05-28T01:59:38.748Z,68.46
2019-05-28T02:02:08.349Z,69.22
2019-05-28T02:04:37.631Z,69.45
2019-05-28T02:07:06.861Z,69.31
2019-05-28T02:09:36.072Z,69.11
2019-05-28T02:12:05.301Z,68.64
2019-05-28T02:14:34.865Z,68.67
2019-05-28T02:17:04.090Z,68.54
2019-05-28T02:19:33.381Z,68.36
2019-05-28T02:22:03.316Z,68.86
2019-05-28T02:24:32.931Z,68.86
2019-05-28T02:27:02.375Z,68.39
2019-05-28T02:29:31.610Z,68.29
2019-05-28T02:32:00.978Z,68.46
2019-05-28T02:34:30.201Z,68.82
2019-05-28T02:37:00.119Z,68.67
2019-05-28T02:39:29.376Z,68.63
2019-05-28T02:41:58.908Z,68.83
2019-05-28T02:44:28.702Z,69.42
2019-05-28T02:46:58.244Z,69.63
2019-05-28T02:49:27.457Z,69.65
2019-05-28T02:51:56.732Z,69.68
2019-05-28T02:54:26.700Z,69.57
2019-05-28T02:56:56.680Z,69.74
2019-05-28T02:59:26.562Z,70.09
2019-05-28T03:01:57.514Z,69.95
2019-05-28T03:04:28.762Z,69.87
2019-05-28T03:06:59.812Z,69.59
2019-05-28T03:09:30.752Z,69.79
2019-05-28T03:12:00.361Z,69.78
2019-05-28T03:14:29.599Z,69.84
2019-05-28T03:17:01.240Z,70.14
2019-05-28T03:19:31.269Z,69.95
2019-05-28T03:22:02.089Z,70.50
2019-05-28T03:24:32.274Z,70.00
2019-05-28T03:27:02.771Z,70.21
2019-05-28T03:29:31.985Z,70.25
2019-05-28T03:32:09.791Z,70.27
2019-05-28T03:34:32.541Z,70.37
2019-05-28T03:37:02.649Z,70.43
2019-05-28T03:39:32.147Z,70.44
2019-05-28T03:42:01.392Z,70.65
2019-05-28T03:44:31.008Z,70.40
2019-05-28T03:47:00.594Z,70.71
2019-05-28T03:49:29.802Z,70.63
2019-05-28T03:51:59.316Z,70.20
2019-05-28T03:54:29.244Z,70.44
2019-05-28T03:56:58.523Z,70.33
2019-05-28T03:59:27.759Z,70.20
2019-05-28T04:01:57.482Z,70.28
2019-05-28T04:04:27.725Z,70.20
2019-05-28T04:06:57.297Z,70.26
2019-05-28T04:09:27.302Z,70.58
2019-05-28T04:11:57.559Z,70.33
2019-05-28T04:14:26.844Z,70.58
2019-05-28T04:16:56.089Z,70.54
2019-05-28T04:19:25.298Z,70.47
2019-05-28T04:21:54.900Z,70.47
2019-05-28T04:24:24.096Z,70.36
2019-05-28T04:26:53.529Z,70.15
2019-05-28T04:29:24.584Z,70.39
2019-05-28T04:31:54.236Z,69.88
2019-05-28T04:34:24.596Z,69.88
2019-05-28T04:36:54.214Z,70.21
2019-05-28T04:39:23.477Z,69.98
2019-05-28T04:41:53.275Z,69.58
2019-05-28T04:44:22.524Z,69.58
2019-05-28T04:46:51.952Z,69.37
2019-05-28T04:49:21.198Z,69.10
2019-05-28T04:51:50.407Z,69.01
2019-05-28T04:54:19.671Z,68.39
2019-05-28T04:56:49.463Z,68.18
2019-05-28T04:59:19.016Z,68.62
2019-05-28T05:01:48.314Z,67.88
2019-05-28T05:04:17.829Z,67.35
2019-05-28T05:06:47.474Z,67.11
2019-05-28T05:09:16.879Z,66.72
2019-05-28T05:11:46.435Z,66.69
2019-05-28T05:14:15.661Z,66.92
2019-05-28T05:16:44.905Z,67.18
2019-05-28T05:19:14.150Z,67.09
2019-05-28T05:21:43.404Z,66.80
2019-05-28T05:24:13.312Z,66.50
2019-05-28T05:26:42.827Z,66.13
2019-05-28T05:29:12.151Z,65.95
2019-05-28T05:31:41.345Z,65.60
2019-05-28T05:34:11.098Z,65.15
2019-05-28T05:36:40.354Z,65.52
2019-05-28T05:39:09.794Z,64.84
2019-05-28T05:41:40.092Z,64.59
2019-05-28T05:44:09.609Z,64.09
2019-05-28T05:46:39.182Z,64.20
2019-05-28T05:49:08.495Z,64.02
2019-05-28T05:51:38.125Z,64.63
2019-05-28T05:54:07.370Z,64.83
2019-05-28T05:56:36.644Z,64.53
2019-05-28T05:59:05.843Z,64.61
2019-05-28T06:01:35.103Z,64.41
2019-05-28T06:04:04.814Z,64.79
2019-05-28T06:06:34.142Z,64.63
2019-05-28T06:09:03.640Z,64.72
2019-05-28T06:11:33.152Z,64.94
2019-05-28T06:14:02.445Z,65.02
2019-05-28T06:16:31.647Z,64.83
2019-05-28T06:19:01.316Z,64.81
2019-05-28T06:21:30.835Z,65.02
2019-05-28T06:24:00.087Z,64.88
2019-05-28T06:26:29.373Z,65.32
2019-05-28T06:29:00.452Z,65.41
2019-05-28T06:31:29.993Z,65.28
2019-05-28T06:33:59.497Z,65.15
2019-05-28T06:36:29.515Z,65.04
2019-05-28T06:39:00.205Z,64.40
2019-05-28T06:41:29.808Z,64.55
2019-05-28T06:43:59.361Z,64.45
2019-05-28T06:46:28.939Z,64.23
2019-05-28T06:48:59.907Z,63.98
2019-05-28T06:51:29.719Z,63.68
2019-05-28T06:53:59.447Z,64.32
2019-05-28T06:56:29.350Z,63.19
2019-05-28T06:58:58.734Z,62.68
2019-05-28T07:01:28.789Z,61.71
2019-05-28T07:04:12.756Z,61.34
2019-05-28T07:06:29.945Z,62.73
2019-05-28T07:08:59.205Z,63.37
2019-05-28T07:11:28.477Z,63.76
2019-05-28T07:13:58.436Z,64.68
2019-05-28T07:16:27.641Z,66.66
2019-05-28T07:18:56.906Z,68.49
2019-05-28T07:21:26.886Z,70.58
2019-05-28T07:23:56.123Z,71.39
2019-05-28T07:26:25.426Z,72.93
2019-05-28T07:28:54.624Z,73.22
2019-05-28T07:31:23.901Z,73.69
2019-05-28T07:33:53.431Z,73.39
2019-05-28T07:36:22.867Z,72.73
2019-05-28T07:38:52.372Z,71.85
2019-05-28T07:41:21.897Z,71.82
2019-05-28T07:43:51.819Z,72.99
2019-05-28T07:46:21.085Z,75.54
2019-05-28T07:48:50.324Z,76.58
2019-05-28T07:51:19.542Z,77.45
2019-05-28T07:53:48.784Z,78.11
2019-05-28T07:56:17.990Z,78.42
2019-05-28T07:58:49.400Z,78.90
2019-05-28T08:01:19.052Z,79.22
2019-05-28T08:03:48.796Z,79.62
2019-05-28T08:06:18.061Z,79.93
2019-05-28T08:08:47.856Z,80.23
2019-05-28T08:11:17.659Z,80.49
2019-05-28T08:13:46.908Z,80.67
2019-05-28T08:16:18.545Z,80.64
2019-05-28T08:18:47.212Z,80.65
2019-05-28T08:21:16.444Z,80.64
2019-05-28T08:23:45.667Z,80.82
2019-05-28T08:26:14.937Z,80.95
2019-05-28T08:28:44.139Z,80.71
2019-05-28T08:31:17.384Z,80.36
2019-05-28T08:33:44.392Z,80.01
2019-05-28T08:36:13.920Z,79.80
2019-05-28T08:38:43.171Z,79.57
2019-05-28T08:41:12.464Z,79.50
2019-05-28T08:43:42.018Z,79.13
2019-05-28T08:46:11.255Z,78.95
2019-05-28T08:48:40.765Z,78.95
2019-05-28T08:51:10.502Z,78.36
2019-05-28T08:53:39.818Z,76.57
2019-05-28T08:56:09.021Z,76.70
2019-05-28T08:58:38.296Z,76.90
2019-05-28T09:01:07.519Z,77.14
2019-05-28T09:03:36.764Z,75.09
2019-05-28T09:06:06.027Z,75.78
2019-05-28T09:08:39.085Z,76.10
2019-05-28T09:11:06.285Z,76.63
2019-05-28T09:13:35.893Z,76.90
2019-05-28T09:16:05.114Z,77.00
2019-05-28T09:18:34.353Z,76.61
2019-05-28T09:21:03.794Z,76.28
2019-05-28T09:23:34.120Z,75.51
2019-05-28T09:26:03.935Z,75.29
2019-05-28T09:28:33.342Z,75.81
2019-05-28T09:31:02.589Z,75.59
2019-05-28T09:33:32.813Z,75.74
2019-05-28T09:36:08.572Z,75.06
2019-05-28T09:38:33.159Z,74.91
2019-05-28T09:41:05.639Z,75.49
2019-05-28T09:43:34.171Z,75.52
2019-05-28T09:46:03.435Z,75.30
2019-05-28T09:48:33.192Z,74.71
2019-05-28T09:51:02.419Z,75.06
2019-05-28T09:53:34.793Z,74.50
2019-05-28T09:56:03.617Z,74.70
2019-05-28T09:58:33.254Z,75.17
2019-05-28T10:01:02.545Z,75.61
2019-05-28T10:03:32.001Z,75.12
2019-05-28T10:06:15.494Z,75.62
2019-05-28T10:08:32.689Z,75.33
2019-05-28T10:11:01.971Z,74.95
2019-05-28T10:13:39.454Z,75.59
2019-05-28T10:16:02.583Z,75.63
2019-05-28T10:18:32.242Z,76.46
2019-05-28T10:21:16.897Z,77.26
2019-05-28T10:23:32.824Z,77.47
2019-05-28T10:26:02.678Z,77.37
2019-05-28T10:28:32.218Z,78.00
2019-05-28T10:31:01.486Z,78.52
2019-05-28T10:33:30.931Z,78.97
2019-05-28T10:36:00.480Z,79.11
2019-05-28T10:38:30.068Z,79.50
2019-05-28T10:41:00.099Z,78.66
2019-05-28T10:43:30.866Z,78.68
2019-05-28T10:46:00.205Z,78.90
2019-05-28T10:48:29.773Z,78.02
2019-05-28T10:50:58.995Z,78.19
2019-05-28T10:53:29.874Z,78.55
2019-05-28T10:55:59.140Z,78.26
2019-05-28T10:58:29.484Z,78.10
2019-05-28T11:00:58.721Z,78.05
2019-05-28T11:03:28.312Z,76.90
2019-05-28T11:05:57.789Z,77.28
2019-05-28T11:08:26.999Z,76.52
2019-05-28T11:10:56.212Z,75.53
2019-05-28T11:13:25.493Z,75.12
2019-05-28T11:15:55.073Z,73.95
2019-05-28T11:18:24.701Z,73.19
2019-05-28T11:20:54.548Z,71.99
2019-05-28T11:23:24.152Z,72.58
2019-05-28T11:25:53.385Z,71.88
2019-05-28T11:28:22.739Z,71.07
2019-05-28T11:30:52.300Z,71.29
2019-05-28T11:33:22.645Z,71.32
2019-05-28T11:35:52.010Z,70.37
2019-05-28T11:38:21.610Z,70.33
2019-05-28T11:40:51.232Z,71.38
2019-05-28T11:43:20.471Z,70.23
2019-05-28T11:45:49.770Z,68.75
2019-05-28T11:48:18.986Z,69.18
2019-05-28T11:50:50.416Z,69.48
2019-05-28T11:53:19.978Z,69.08
2019-05-28T11:55:49.199Z,68.27
2019-05-28T11:58:18.426Z,69.22
2019-05-28T12:00:47.691Z,69.45
2019-05-28T12:03:17.499Z,69.76
2019-05-28T12:05:46.735Z,68.56
2019-05-28T12:08:17.092Z,67.71
2019-05-28T12:10:46.366Z,67.92
2019-05-28T12:13:15.603Z,68.70
2019-05-28T12:15:44.881Z,68.24
2019-05-28T12:18:14.473Z,68.10
2019-05-28T12:20:43.712Z,67.19
2019-05-28T12:23:12.951Z,67.17
2019-05-28T12:25:42.231Z,66.33
2019-05-28T12:28:11.448Z,65.00
2019-05-28T12:30:41.825Z,62.14
2019-05-28T12:33:11.113Z,62.44
2019-05-28T12:35:42.883Z,61.10
2019-05-28T12:38:11.793Z,59.69
2019-05-28T12:40:47.667Z,61.79
2019-05-28T12:43:12.932Z,60.66
2019-05-28T12:45:42.225Z,59.37
2019-05-28T12:48:13.200Z,61.84
2019-05-28T12:50:42.727Z,60.76
2019-05-28T12:53:12.208Z,59.37
2019-05-28T12:55:41.851Z,61.01
2019-05-28T12:58:11.061Z,60.83
2019-05-28T13:00:40.737Z,60.68
2019-05-28T13:03:10.018Z,62.05
2019-05-28T13:05:39.672Z,62.70
2019-05-28T13:08:10.600Z,63.43
2019-05-28T13:10:40.175Z,62.68
2019-05-28T13:13:09.810Z,63.49
2019-05-28T13:15:42.335Z,60.61
2019-05-28T13:18:10.019Z,61.45
2019-05-28T13:20:39.332Z,60.80
2019-05-28T13:23:09.475Z,60.73
2019-05-28T13:25:38.772Z,61.65
2019-05-28T13:28:07.981Z,60.51
2019-05-28T13:30:37.582Z,60.06
2019-05-28T13:33:06.856Z,60.13
2019-05-28T13:35:36.270Z,57.76
2019-05-28T13:38:05.566Z,57.08
2019-05-28T13:40:34.951Z,56.91
2019-05-28T13:43:04.587Z,57.22
2019-05-28T13:45:33.916Z,54.78
2019-05-28T13:48:03.182Z,57.73
2019-05-28T13:50:32.477Z,57.81
2019-05-28T13:53:02.157Z,59.18
2019-05-28T13:55:31.384Z,59.95
2019-05-28T13:58:00.633Z,57.54
2019-05-28T14:00:30.275Z,56.10
2019-05-28T14:03:00.043Z,57.22
2019-05-28T14:05:29.565Z,58.53
2019-05-28T14:07:58.789Z,54.91
2019-05-28T14:10:28.017Z,55.31
2019-05-28T14:12:57.593Z,54.99
2019-05-28T14:15:26.823Z,56.95
2019-05-28T14:17:56.098Z,60.06
2019-05-28T14:20:25.968Z,59.45
2019-05-28T14:22:55.180Z,60.49
2019-05-28T14:25:24.440Z,60.96
2019-05-28T14:27:56.523Z,61.10
2019-05-28T14:30:26.425Z,63.64
2019-05-28T14:32:55.648Z,63.66
2019-05-28T14:35:25.018Z,62.44
2019-05-28T14:37:54.563Z,61.92
2019-05-28T14:40:25.088Z,61.71
2019-05-28T14:42:54.906Z,58.29
2019-05-28T14:45:25.191Z,56.90
2019-05-28T14:47:55.910Z,56.09
2019-05-28T14:50:25.224Z,53.74
2019-05-28T14:52:54.664Z,53.49
2019-05-28T14:55:23.937Z,52.37
2019-05-28T14:57:53.140Z,53.30
2019-05-28T15:00:22.401Z,51.46
2019-05-28T15:02:52.007Z,50.93
2019-05-28T15:05:21.443Z,51.29
2019-05-28T15:07:50.996Z,50.68
2019-05-28T15:10:22.218Z,50.40
2019-05-28T15:12:51.952Z,49.92
2019-05-28T15:15:35.443Z,49.94
2019-05-28T15:17:52.176Z,50.81
2019-05-28T15:20:21.682Z,49.55
2019-05-28T15:22:51.336Z,49.04
2019-05-28T15:25:21.138Z,49.66
2019-05-28T15:27:50.895Z,50.03
2019-05-28T15:30:20.416Z,49.89
2019-05-28T15:32:51.204Z,49.15
2019-05-28T15:35:20.513Z,48.33
2019-05-28T15:37:49.743Z,47.77
2019-05-28T15:40:19.168Z,48.15
2019-05-28T15:43:04.643Z,48.36
2019-05-28T15:45:20.471Z,47.86
2019-05-28T15:47:50.105Z,48.43
2019-05-28T15:50:19.495Z,47.62
2019-05-28T15:52:49.211Z,47.12
2019-05-28T15:55:18.528Z,49.00
2019-05-28T15:57:47.859Z,48.26
2019-05-28T16:00:20.271Z,48.79
2019-05-28T16:02:49.880Z,48.14
2019-05-28T16:05:19.284Z,48.77
2019-05-28T16:07:48.880Z,50.52
2019-05-28T16:10:18.746Z,48.79
2019-05-28T16:12:48.676Z,48.58
2019-05-28T16:15:18.624Z,49.36
2019-05-28T16:17:47.902Z,47.97
2019-05-28T16:20:18.617Z,48.49
2019-05-28T16:22:47.868Z,49.30
2019-05-28T16:25:17.974Z,48.73
2019-05-28T16:27:47.188Z,48.88
2019-05-28T16:30:17.689Z,48.51
2019-05-28T16:32:47.323Z,48.54
2019-05-28T16:35:19.815Z,48.79
2019-05-28T16:37:49.452Z,48.28
2019-05-28T16:40:19.287Z,48.95
2019-05-28T16:42:48.575Z,49.24
2019-05-28T16:45:19.543Z,46.95
2019-05-28T16:47:48.782Z,48.15
2019-05-28T16:50:19.418Z,47.71
2019-05-28T16:52:48.993Z,48.60
2019-05-28T16:55:18.316Z,48.76
2019-05-28T16:57:47.591Z,49.02
2019-05-28T17:00:17.340Z,48.89
2019-05-28T17:02:46.672Z,48.35
2019-05-28T17:05:16.726Z,47.57
2019-05-28T17:07:45.972Z,48.01
2019-05-28T17:10:31.759Z,47.94
2019-05-28T17:12:47.520Z,47.85
2019-05-28T17:15:17.902Z,47.52
2019-05-28T17:17:47.512Z,48.62
2019-05-28T17:20:17.128Z,48.29
2019-05-28T17:22:46.366Z,48.89
2019-05-28T17:25:15.801Z,48.10
2019-05-28T17:27:45.336Z,49.21
2019-05-28T17:30:20.691Z,48.74
2019-05-28T17:32:47.968Z,49.23
2019-05-28T17:35:17.342Z,49.09
2019-05-28T17:37:47.321Z,49.66
2019-05-28T17:40:21.693Z,49.10
2019-05-28T17:42:48.418Z,48.46
2019-05-28T17:45:18.201Z,48.21
2019-05-28T17:47:47.530Z,48.67
2019-05-28T17:50:17.887Z,48.64
2019-05-28T17:52:51.337Z,48.08
2019-05-28T17:55:18.649Z,48.04
2019-05-28T17:57:48.242Z,47.20
2019-05-28T18:00:17.820Z,46.85
2019-05-28T18:02:48.626Z,46.38
2019-05-28T18:05:20.062Z,45.12
2019-05-28T18:07:49.966Z,44.79
2019-05-28T18:10:20.439Z,45.06
2019-05-28T18:12:49.674Z,43.97
2019-05-28T18:15:19.239Z,44.73
2019-05-28T18:17:48.840Z,45.41
2019-05-28T18:20:19.289Z,46.41
2019-05-28T18:22:48.559Z,46.76
2019-05-28T18:25:20.103Z,47.69
2019-05-28T18:27:48.884Z,47.82
2019-05-28T18:30:20.842Z,48.81
2019-05-28T18:32:50.108Z,49.31
2019-05-28T18:35:19.740Z,49.59
2019-05-28T18:37:49.005Z,49.95
2019-05-28T18:40:18.485Z,50.22
2019-05-28T18:42:49.043Z,50.36
2019-05-28T18:45:18.823Z,49.82
2019-05-28T18:47:48.271Z,49.93
2019-05-28T18:50:18.425Z,49.77
2019-05-28T18:52:47.849Z,50.26
2019-05-28T18:55:17.201Z,50.47
2019-05-28T18:57:50.382Z,50.28
2019-05-28T19:00:17.959Z,50.68
2019-05-28T19:02:47.531Z,50.49
2019-05-28T19:05:17.223Z,50.66
2019-05-28T19:07:46.611Z,51.24
2019-05-28T19:10:16.358Z,51.61
2019-05-28T19:12:45.848Z,51.62
2019-05-28T19:15:15.242Z,52.04
2019-05-28T19:17:44.857Z,52.54
2019-05-28T19:20:14.645Z,52.93
2019-05-28T19:22:43.929Z,53.34
2019-05-28T19:25:14.781Z,54.25
2019-05-28T19:27:44.408Z,54.61
2019-05-28T19:30:17.400Z,55.07
2019-05-28T19:32:46.678Z,55.24
2019-05-28T19:35:16.274Z,55.90
2019-05-28T19:37:46.053Z,56.11
2019-05-28T19:40:19.932Z,56.23
2019-05-28T19:42:49.746Z,56.55
2019-05-28T19:45:19.027Z,56.81
2019-05-28T19:47:48.290Z,56.92
2019-05-28T19:50:17.692Z,57.35
2019-05-28T19:52:46.909Z,57.46
2019-05-28T19:55:17.934Z,57.72
2019-05-28T19:57:47.624Z,57.89
2019-05-28T20:00:17.565Z,57.34
2019-05-28T20:02:46.811Z,57.75
2019-05-28T20:05:16.628Z,58.23
2019-05-28T20:07:46.010Z,58.20
2019-05-28T20:10:15.247Z,58.19
2019-05-28T20:12:44.483Z,58.61
2019-05-28T20:15:16.006Z,58.76
2019-05-28T20:17:46.277Z,59.28
2019-05-28T20:20:17.064Z,59.25
2019-05-28T20:22:46.348Z,59.50
2019-05-28T20:25:16.043Z,58.90
2019-05-28T20:27:47.573Z,58.84
2019-05-28T20:30:16.996Z,59.57
2019-05-28T20:32:46.300Z,59.70
2019-05-28T20:35:16.044Z,60.17
2019-05-28T20:37:45.641Z,59.82
2019-05-28T20:40:15.469Z,60.00
2019-05-28T20:42:44.736Z,60.39
2019-05-28T20:45:14.156Z,60.53
2019-05-28T20:47:43.680Z,61.04
2019-05-28T20:50:14.434Z,61.19
2019-05-28T20:52:43.667Z,61.63
2019-05-28T20:55:12.945Z,61.99
2019-05-28T20:57:42.511Z,62.54
2019-05-28T21:00:12.632Z,62.81
2019-05-28T21:02:42.444Z,62.84
2019-05-28T21:05:12.346Z,63.11
2019-05-28T21:07:42.506Z,63.58
2019-05-28T21:10:12.069Z,63.64
2019-05-28T21:12:44.531Z,63.79
2019-05-28T21:15:16.117Z,64.32
2019-05-28T21:17:45.925Z,64.73
2019-05-28T21:20:15.651Z,65.16
2019-05-28T21:22:45.258Z,65.24
2019-05-28T21:25:14.505Z,65.32
2019-05-28T21:27:44.066Z,65.35
2019-05-28T21:30:13.491Z,65.18
2019-05-28T21:32:42.967Z,65.35
2019-05-28T21:35:12.427Z,65.90
2019-05-28T21:37:41.999Z,65.94
2019-05-28T21:40:11.585Z,65.83
2019-05-28T21:42:41.131Z,65.78
2019-05-28T21:45:10.798Z,65.78
2019-05-28T21:47:41.067Z,65.82
2019-05-28T21:50:10.954Z,65.77
2019-05-28T21:52:40.972Z,66.17
2019-05-28T21:55:10.199Z,66.56
2019-05-28T21:57:39.387Z,66.56
2019-05-28T22:00:16.593Z,66.79
2019-05-28T22:02:46.071Z,67.24
2019-05-28T22:05:15.373Z,67.68
2019-05-28T22:07:44.564Z,67.60
2019-05-28T22:10:14.260Z,67.84
2019-05-28T22:12:44.019Z,67.99
2019-05-28T22:15:13.439Z,68.50
2019-05-28T22:17:44.017Z,68.72
2019-05-28T22:20:13.243Z,68.81
2019-05-28T22:22:42.818Z,68.69
2019-05-28T22:25:12.002Z,68.85
2019-05-28T22:27:41.250Z,69.54
2019-05-28T22:30:11.956Z,69.70
2019-05-28T22:32:41.128Z,69.58
2019-05-28T22:35:10.848Z,69.93
2019-05-28T22:37:40.066Z,69.74
2019-05-28T22:40:09.883Z,69.87
2019-05-28T22:42:39.339Z,70.39
2019-05-28T22:45:08.866Z,71.22
2019-05-28T22:47:38.040Z,71.54
2019-05-28T22:50:19.535Z,71.56
2019-05-28T22:52:39.033Z,71.62
2019-05-28T22:55:09.477Z,71.97
2019-05-28T22:57:38.640Z,72.11
2019-05-28T23:00:09.007Z,72.50
2019-05-28T23:02:38.532Z,72.58
2019-05-28T23:05:09.313Z,72.88
2019-05-28T23:07:38.541Z,72.86
2019-05-28T23:10:09.860Z,72.52
2019-05-28T23:12:39.196Z,72.68
2019-05-28T23:15:10.326Z,72.73
2019-05-28T23:17:39.859Z,72.92
2019-05-28T23:20:11.182Z,73.38
2019-05-28T23:22:41.063Z,73.56
2019-05-28T23:25:11.688Z,73.66
2019-05-28T23:27:41.237Z,73.79
2019-05-28T23:30:23.329Z,73.98
2019-05-28T23:32:44.680Z,73.91
2019-05-28T23:35:13.966Z,74.03
2019-05-28T23:37:43.186Z,74.20
2019-05-28T23:40:14.475Z,74.25
2019-05-28T23:42:44.007Z,74.45
2019-05-28T23:45:13.953Z,74.62
2019-05-28T23:47:43.571Z,74.74
2019-05-28T23:50:17.545Z,74.68
2019-05-28T23:52:44.772Z,74.68
2019-05-28T23:55:14.047Z,74.63
2019-05-28T23:57:43.823Z,74.74
